createdAt,value
2022-09-03T00:01:14.801Z,100514.67
2022-09-03T00:05:34.538Z,100508.77
2022-09-03T00:09:45.676Z,100511.71
2022-09-03T00:13:59.645Z,100503.90
2022-09-03T00:18:09.967Z,100498.71
2022-09-03T00:22:21.009Z,100494.12
2022-09-03T00:26:31.946Z,100495.75
2022-09-03T00:30:41.005Z,100489.75
2022-09-03T00:34:52.636Z,100493.98
2022-09-03T00:39:02.470Z,100498.58
2022-09-03T00:43:19.864Z,100501.95
2022-09-03T00:47:34.202Z,100501.55
2022-09-03T00:51:46.732Z,100504.40
2022-09-03T00:55:58.910Z,100508.90
2022-09-03T01:00:11.520Z,100505.80
2022-09-03T01:04:30.226Z,100506.98
2022-09-03T01:08:58.157Z,100505.98
2022-09-03T01:13:11.380Z,100500.82
2022-09-03T01:17:27.528Z,100507.31
2022-09-03T01:21:54.468Z,100514.02
2022-09-03T01:26:11.365Z,100507.92
2022-09-03T01:30:24.297Z,100504.02
2022-09-03T01:34:43.652Z,100507.31
2022-09-03T01:38:55.357Z,100506.32
2022-09-03T01:43:19.126Z,100503.17
2022-09-03T01:47:34.162Z,100499.38
2022-09-03T01:51:43.227Z,100499.52
2022-09-03T01:56:00.202Z,100503.64
2022-09-03T02:00:13.241Z,100505.80
2022-09-03T02:04:25.079Z,100503.00
2022-09-03T02:08:32.857Z,100507.48
2022-09-03T02:12:43.450Z,100513.66
2022-09-03T02:16:51.419Z,100514.86
2022-09-03T02:21:00.765Z,100510.03
2022-09-03T02:25:11.430Z,100514.04
2022-09-03T02:29:20.246Z,100516.95
2022-09-03T02:33:28.446Z,100515.73
2022-09-03T02:37:36.472Z,100520.72
2022-09-03T02:41:44.869Z,100523.13
2022-09-03T02:45:57.200Z,100516.79
2022-09-03T02:50:06.430Z,100525.05
2022-09-03T02:54:20.219Z,100520.55
2022-09-03T02:58:28.896Z,100519.45
2022-09-03T03:02:37.267Z,100523.03
2022-09-03T03:06:47.744Z,100516.70
2022-09-03T03:10:58.953Z,100508.59
2022-09-03T03:15:07.911Z,100507.09
2022-09-03T03:19:15.264Z,100509.07
2022-09-03T03:23:23.897Z,100504.70
2022-09-03T03:27:31.922Z,100505.63
2022-09-03T03:31:41.355Z,100509.80
2022-09-03T03:35:49.972Z,100511.17
2022-09-03T03:39:58.236Z,100514.73
2022-09-03T03:44:08.727Z,100513.98
2022-09-03T03:48:16.711Z,100515.41
2022-09-03T03:52:26.195Z,100514.66
2022-09-03T03:56:34.422Z,100515.29
2022-09-03T04:00:46.236Z,100514.09
2022-09-03T04:04:54.157Z,100515.46
2022-09-03T04:09:02.270Z,100521.15
2022-09-03T04:13:10.359Z,100528.63
2022-09-03T04:17:22.081Z,100528.48
2022-09-03T04:21:34.159Z,100530.48
2022-09-03T04:25:45.279Z,100531.33
2022-09-03T04:29:53.094Z,100523.10
2022-09-03T04:34:02.259Z,100528.33
2022-09-03T04:38:11.296Z,100530.73
2022-09-03T04:42:19.320Z,100529.50
2022-09-03T04:46:30.480Z,100530.91
2022-09-03T04:50:38.395Z,100534.95
2022-09-03T04:54:46.308Z,100537.88
2022-09-03T04:58:58.668Z,100543.17
2022-09-03T05:03:06.407Z,100544.16
2022-09-03T05:07:15.225Z,100549.73
2022-09-03T05:11:23.286Z,100541.76
2022-09-03T05:15:31.628Z,100541.42
2022-09-03T05:19:39.612Z,100545.67
2022-09-03T05:23:48.895Z,100550.21
2022-09-03T05:27:57.806Z,100547.14
2022-09-03T05:32:08.150Z,100543.40
2022-09-03T05:36:19.762Z,100543.74
2022-09-03T05:40:27.605Z,100544.89
2022-09-03T05:44:37.012Z,100548.23
2022-09-03T05:48:45.022Z,100546.29
2022-09-03T05:52:53.150Z,100538.17
2022-09-03T05:57:01.303Z,100545.84
2022-09-03T06:01:16.145Z,100544.76
2022-09-03T06:05:25.073Z,100544.45
2022-09-03T06:09:33.141Z,100547.47
2022-09-03T06:13:41.258Z,100548.20
2022-09-03T06:17:49.718Z,100545.06
2022-09-03T06:21:57.464Z,100547.18
2022-09-03T06:26:07.492Z,100553.59
2022-09-03T06:30:17.023Z,100562.41
2022-09-03T06:34:27.358Z,100566.94
2022-09-03T06:38:36.557Z,100568.70
2022-09-03T06:42:46.651Z,100567.39
2022-09-03T06:46:54.984Z,100565.23
2022-09-03T06:51:04.332Z,100563.98
2022-09-03T06:55:13.227Z,100567.46
2022-09-03T06:59:20.899Z,100565.94
2022-09-03T07:03:30.087Z,100565.15
2022-09-03T07:07:39.021Z,100562.02
2022-09-03T07:11:50.035Z,100559.93
2022-09-03T07:16:04.667Z,100562.23
2022-09-03T07:20:13.203Z,100563.36
2022-09-03T07:24:22.594Z,100556.51
2022-09-03T07:28:32.262Z,100557.60
2022-09-03T07:32:41.169Z,100559.52
2022-09-03T07:36:51.981Z,100558.23
2022-09-03T07:41:03.896Z,100560.63
2022-09-03T07:45:12.579Z,100557.45
2022-09-03T07:49:21.664Z,100560.45
2022-09-03T07:53:30.031Z,100565.85
2022-09-03T07:57:37.376Z,100565.48
2022-09-03T08:01:45.216Z,100567.12
2022-09-03T08:05:53.401Z,100569.60
2022-09-03T08:10:01.891Z,100560.08
2022-09-03T08:14:12.623Z,100562.98
2022-09-03T08:18:23.437Z,100561.14
2022-09-03T08:22:32.575Z,100557.85
2022-09-03T08:26:42.466Z,100551.38
2022-09-03T08:30:51.436Z,100554.43
2022-09-03T08:35:00.012Z,100550.80
2022-09-03T08:39:11.023Z,100546.63
2022-09-03T08:43:20.861Z,100534.44
2022-09-03T08:47:34.294Z,100534.16
2022-09-03T08:51:45.352Z,100528.17
2022-09-03T08:55:56.870Z,100524.42
2022-09-03T09:00:06.149Z,100527.61
2022-09-03T09:04:26.430Z,100528.36
2022-09-03T09:08:39.760Z,100530.19
2022-09-03T09:13:01.628Z,100528.54
2022-09-03T09:17:19.677Z,100527.98
2022-09-03T09:21:31.471Z,100521.16
2022-09-03T09:25:47.353Z,100517.77
2022-09-03T09:29:56.175Z,100517.56
2022-09-03T09:34:09.049Z,100508.77
2022-09-03T09:38:17.687Z,100506.80
2022-09-03T09:42:26.584Z,100500.39
2022-09-03T09:46:39.691Z,100496.13
2022-09-03T09:50:50.798Z,100494.92
2022-09-03T09:55:13.253Z,100496.77
2022-09-03T09:59:22.409Z,100494.70
2022-09-03T10:03:31.537Z,100493.67
2022-09-03T10:07:40.675Z,100489.73
2022-09-03T10:11:52.167Z,100489.15
2022-09-03T10:16:04.849Z,100486.98
2022-09-03T10:20:32.577Z,100487.34
2022-09-03T10:24:52.745Z,100478.08
2022-09-03T10:29:03.902Z,100481.05
2022-09-03T10:33:15.849Z,100483.89
2022-09-03T10:37:31.237Z,100476.73
2022-09-03T10:41:48.172Z,100472.77
2022-09-03T10:46:06.369Z,100469.63
2022-09-03T10:50:18.165Z,100470.66
2022-09-03T10:54:40.200Z,100469.04
2022-09-03T10:59:00.747Z,100463.66
2022-09-03T11:03:39.399Z,100458.86
2022-09-03T11:07:51.003Z,100452.73
2022-09-03T11:12:02.266Z,100446.91
2022-09-03T11:16:15.422Z,100439.70
2022-09-03T11:20:25.428Z,100440.30
2022-09-03T11:24:35.383Z,100433.20
2022-09-03T11:28:50.329Z,100429.39
2022-09-03T11:33:00.826Z,100426.15
2022-09-03T11:37:20.365Z,100424.97
2022-09-03T11:41:30.062Z,100419.09
2022-09-03T11:45:42.346Z,100417.03
2022-09-03T11:49:51.858Z,100408.47
2022-09-03T11:54:02.202Z,100406.27
2022-09-03T11:58:25.078Z,100407.09
2022-09-03T12:02:34.880Z,100400.21
2022-09-03T12:07:07.946Z,100399.67
2022-09-03T12:11:37.287Z,100400.13
2022-09-03T12:16:18.582Z,100395.04
2022-09-03T12:20:30.956Z,100395.11
2022-09-03T12:24:38.954Z,100395.52
2022-09-03T12:28:49.482Z,100395.81
2022-09-03T12:33:08.699Z,100391.61
2022-09-03T12:42:04.283Z,100385.31
2022-09-03T12:46:18.514Z,100385.64
2022-09-03T12:50:27.446Z,100376.79
2022-09-03T12:54:35.617Z,100372.58
2022-09-03T12:58:50.904Z,100377.06
2022-09-03T13:03:02.356Z,100376.60
2022-09-03T13:07:15.501Z,100370.86
2022-09-03T13:11:24.926Z,100368.79
2022-09-03T13:15:33.262Z,100366.06
2022-09-03T13:19:48.848Z,100364.08
2022-09-03T13:24:15.310Z,100363.42
2022-09-03T13:28:31.951Z,100367.75
2022-09-03T13:32:46.505Z,100376.04
2022-09-03T13:36:58.368Z,100373.54
2022-09-03T13:41:20.141Z,100370.73
2022-09-03T13:45:39.345Z,100368.78
2022-09-03T13:50:13.636Z,100367.79
2022-09-03T13:54:47.699Z,100360.25
2022-09-03T13:58:57.836Z,100361.77
2022-09-03T14:03:16.918Z,100362.57
2022-09-03T14:07:27.559Z,100358.45
2022-09-03T14:11:43.952Z,100357.45
2022-09-03T14:15:59.708Z,100351.30
2022-09-03T14:20:10.163Z,100345.52
2022-09-03T14:24:24.465Z,100352.69
2022-09-03T14:28:37.880Z,100354.17
2022-09-03T14:32:52.446Z,100346.83
2022-09-03T14:37:07.472Z,100345.20
2022-09-03T14:41:30.940Z,100343.80
2022-09-03T14:46:17.238Z,100338.21
2022-09-03T14:50:36.117Z,100334.19
2022-09-03T14:55:04.835Z,100334.10
2022-09-03T14:59:32.551Z,100334.11
2022-09-03T15:04:16.543Z,100331.14
2022-09-03T15:08:37.239Z,100333.90
2022-09-03T15:12:46.896Z,100329.61
2022-09-03T15:17:01.561Z,100331.02
2022-09-03T15:21:18.924Z,100335.24
2022-09-03T15:25:33.513Z,100334.06
2022-09-03T15:29:54.781Z,100333.54
2022-09-03T15:34:10.597Z,100332.63
2022-09-03T15:38:26.842Z,100331.89
2022-09-03T15:42:34.861Z,100336.17
2022-09-03T15:46:52.460Z,100344.33
2022-09-03T15:51:14.839Z,100350.28
2022-09-03T15:55:35.345Z,100350.46
2022-09-03T15:59:48.619Z,100351.24
2022-09-03T16:04:09.947Z,100353.59
2022-09-03T16:08:23.745Z,100352.06
2022-09-03T16:12:36.226Z,100349.27
2022-09-03T16:16:59.592Z,100349.23
2022-09-03T16:21:16.630Z,100352.71
2022-09-03T16:25:32.175Z,100352.36
2022-09-03T16:29:41.461Z,100352.86
2022-09-03T16:38:49.106Z,100358.35
2022-09-03T16:43:38.857Z,100360.50
2022-09-03T16:48:06.523Z,100361.14
2022-09-03T16:52:37.635Z,100365.41
2022-09-03T16:57:00.578Z,100363.62
2022-09-03T17:01:18.999Z,100364.15
2022-09-03T17:05:57.275Z,100365.80
2022-09-03T17:10:16.089Z,100363.25
2022-09-03T17:14:37.181Z,100366.97
2022-09-03T17:18:53.777Z,100371.99
2022-09-03T17:23:12.252Z,100364.71
2022-09-03T17:27:37.341Z,100365.73
2022-09-03T17:31:51.604Z,100370.73
2022-09-03T17:36:06.680Z,100374.19
2022-09-03T17:40:26.887Z,100372.73
2022-09-03T17:44:48.121Z,100375.64
2022-09-03T17:48:56.362Z,100373.56
2022-09-03T17:53:11.745Z,100381.20
2022-09-03T17:57:25.026Z,100380.20
2022-09-03T18:01:37.339Z,100383.90
2022-09-03T18:05:51.633Z,100393.43
2022-09-03T18:10:09.288Z,100393.97
2022-09-03T18:14:24.544Z,100396.52
2022-09-03T18:18:34.021Z,100403.62
2022-09-03T18:23:08.321Z,100406.43
2022-09-03T18:27:36.925Z,100414.79
2022-09-03T18:32:02.942Z,100423.39
2022-09-03T18:36:28.858Z,100426.18
2022-09-03T18:41:02.190Z,100427.70
2022-09-03T18:45:42.269Z,100429.39
2022-09-03T18:50:24.375Z,100434.48
2022-09-03T18:55:08.621Z,100439.99
2022-09-03T18:59:45.672Z,100437.20
2022-09-03T19:04:19.661Z,100437.41
2022-09-03T19:08:48.231Z,100436.79
2022-09-03T19:13:30.007Z,100437.91
2022-09-03T19:18:09.128Z,100439.95
2022-09-03T19:22:37.243Z,100446.71
2022-09-03T19:27:24.821Z,100447.17
2022-09-03T19:32:04.590Z,100438.70
2022-09-03T19:36:38.177Z,100434.83
2022-09-03T19:41:24.322Z,100436.80
2022-09-03T19:45:57.262Z,100436.98
2022-09-03T19:50:31.065Z,100438.43
2022-09-03T19:54:57.737Z,100445.83
2022-09-03T19:59:25.634Z,100447.16
2022-09-03T20:03:51.064Z,100452.43
2022-09-03T20:08:16.995Z,100458.42
2022-09-03T20:12:28.191Z,100464.98
2022-09-03T20:16:40.670Z,100466.97
2022-09-03T20:20:53.464Z,100465.40
2022-09-03T20:25:17.915Z,100471.02
2022-09-03T20:29:37.780Z,100471.58
2022-09-03T20:33:55.533Z,100473.85
2022-09-03T20:38:11.793Z,100477.55
2022-09-03T20:42:37.709Z,100473.45
2022-09-03T20:46:58.727Z,100474.11
2022-09-03T20:51:12.007Z,100478.04
2022-09-03T20:55:23.361Z,100479.92
2022-09-03T20:59:39.804Z,100480.83
2022-09-03T21:03:51.206Z,100484.56
2022-09-03T21:08:11.709Z,100490.81
2022-09-03T21:12:25.771Z,100482.24
2022-09-03T21:16:42.444Z,100479.33
2022-09-03T21:20:57.199Z,100487.73
2022-09-03T21:25:08.428Z,100499.83
2022-09-03T21:29:23.947Z,100504.38
2022-09-03T21:33:36.428Z,100504.89
2022-09-03T21:37:49.303Z,100512.11
2022-09-03T21:41:59.552Z,100508.06
2022-09-03T21:46:10.163Z,100516.36
2022-09-03T21:50:21.439Z,100515.25
2022-09-03T21:54:31.751Z,100511.73
2022-09-03T21:58:51.501Z,100513.31
2022-09-03T22:02:59.888Z,100512.62
2022-09-03T22:07:13.698Z,100517.66
2022-09-03T22:11:25.205Z,100519.55
2022-09-03T22:15:33.655Z,100520.92
2022-09-03T22:19:42.870Z,100518.95
2022-09-03T22:24:04.665Z,100517.10
2022-09-03T22:28:16.092Z,100510.73
2022-09-03T22:32:33.923Z,100514.16
2022-09-03T22:36:47.607Z,100514.85
2022-09-03T22:40:59.935Z,100508.55
2022-09-03T22:45:33.772Z,100502.22
2022-09-03T22:49:46.887Z,100500.00
2022-09-03T22:54:10.904Z,100501.20
2022-09-03T22:58:22.424Z,100494.55
2022-09-03T23:02:32.668Z,100491.63
2022-09-03T23:06:44.157Z,100496.41
2022-09-03T23:11:01.143Z,100495.97
2022-09-03T23:15:12.010Z,100501.67
2022-09-03T23:23:33.403Z,100497.20
2022-09-03T23:27:44.959Z,100496.11
2022-09-03T23:31:54.840Z,100494.19
2022-09-03T23:36:08.481Z,100501.33
2022-09-03T23:40:28.429Z,100497.89
2022-09-03T23:44:46.166Z,100499.56
2022-09-03T23:49:25.407Z,100501.83
2022-09-03T23:53:41.193Z,100508.50
2022-09-03T23:57:57.286Z,100505.31
